createdAt,value
2022-11-02T00:02:29.378Z,64.84
2022-11-02T00:05:23.846Z,64.83
2022-11-02T00:08:14.231Z,64.75
2022-11-02T00:11:03.948Z,64.62
2022-11-02T00:13:53.360Z,64.97
2022-11-02T00:16:41.960Z,64.63
2022-11-02T00:19:31.163Z,64.68
2022-11-02T00:22:18.938Z,64.82
2022-11-02T00:25:13.416Z,64.82
2022-11-02T00:28:01.088Z,64.80
2022-11-02T00:30:53.030Z,64.82
2022-11-02T00:33:43.154Z,64.68
2022-11-02T00:36:31.435Z,64.83
2022-11-02T00:39:19.056Z,64.71
2022-11-02T00:42:10.150Z,64.77
2022-11-02T00:44:58.592Z,64.77
2022-11-02T00:47:48.101Z,64.73
2022-11-02T00:50:36.096Z,64.70
2022-11-02T00:53:24.339Z,64.66
2022-11-02T00:56:13.657Z,64.91
2022-11-02T00:59:01.627Z,64.74
2022-11-02T01:01:49.808Z,64.62
2022-11-02T01:04:39.135Z,64.80
2022-11-02T01:07:28.824Z,64.70
2022-11-02T01:10:16.683Z,64.74
2022-11-02T01:13:05.056Z,64.68
2022-11-02T01:15:52.860Z,64.86
2022-11-02T01:18:41.139Z,64.79
2022-11-02T01:21:31.049Z,64.90
2022-11-02T01:24:21.791Z,64.74
2022-11-02T01:27:09.095Z,64.72
2022-11-02T01:29:57.327Z,64.72
2022-11-02T01:32:45.099Z,64.77
2022-11-02T01:35:32.883Z,64.85
2022-11-02T01:38:22.517Z,64.69
2022-11-02T01:41:13.762Z,64.83
2022-11-02T01:44:05.230Z,64.75
2022-11-02T01:46:56.367Z,64.80
2022-11-02T01:49:47.917Z,64.66
2022-11-02T01:52:39.459Z,64.53
2022-11-02T01:55:34.086Z,64.55
2022-11-02T01:58:21.812Z,64.69
2022-11-02T02:01:10.626Z,64.55
2022-11-02T02:03:59.248Z,64.68
2022-11-02T02:06:47.386Z,64.79
2022-11-02T02:09:36.152Z,64.89
2022-11-02T02:12:26.177Z,64.81
2022-11-02T02:15:14.825Z,64.84
2022-11-02T02:18:10.936Z,64.66
2022-11-02T02:21:22.426Z,64.79
2022-11-02T02:24:49.761Z,64.62
2022-11-02T02:28:03.550Z,64.57
2022-11-02T02:30:59.168Z,64.61
2022-11-02T02:33:55.284Z,64.73
2022-11-02T02:36:51.496Z,64.81
2022-11-02T02:39:47.314Z,64.87
2022-11-02T02:42:42.566Z,64.61
2022-11-02T02:45:38.437Z,64.72
2022-11-02T02:48:27.805Z,64.64
2022-11-02T02:51:27.416Z,64.55
2022-11-02T02:54:20.800Z,64.85
2022-11-02T02:57:13.528Z,64.42
2022-11-02T03:00:01.276Z,64.61
2022-11-02T03:03:04.172Z,64.58
2022-11-02T03:06:18.573Z,64.53
2022-11-02T03:09:18.232Z,64.52
2022-11-02T03:12:16.689Z,64.52
2022-11-02T03:15:15.854Z,64.55
2022-11-02T03:18:12.897Z,64.66
2022-11-02T03:21:12.714Z,64.85
2022-11-02T03:24:13.158Z,64.60
2022-11-02T03:27:17.091Z,64.99
2022-11-02T03:30:11.311Z,64.83
2022-11-02T03:33:06.909Z,64.89
2022-11-02T03:36:08.122Z,64.87
2022-11-02T03:39:02.406Z,65.04
2022-11-02T03:41:52.548Z,65.12
2022-11-02T03:44:45.872Z,64.85
2022-11-02T03:47:39.426Z,65.04
2022-11-02T03:50:35.704Z,64.99
2022-11-02T03:53:30.825Z,65.09
2022-11-02T03:56:26.878Z,64.88
2022-11-02T03:59:16.035Z,65.01
2022-11-02T04:02:11.363Z,64.93
2022-11-02T04:04:59.670Z,64.97
2022-11-02T04:08:11.290Z,65.06
2022-11-02T04:11:16.716Z,65.01
2022-11-02T04:14:28.112Z,65.00
2022-11-02T04:17:34.761Z,65.02
2022-11-02T04:20:26.557Z,64.78
2022-11-02T04:23:33.822Z,64.77
2022-11-02T04:26:21.991Z,65.07
2022-11-02T04:29:11.863Z,65.17
2022-11-02T04:31:59.539Z,65.13
2022-11-02T04:34:47.476Z,64.91
2022-11-02T04:37:57.947Z,65.17
2022-11-02T04:40:47.771Z,64.80
2022-11-02T04:43:37.280Z,65.07
2022-11-02T04:46:28.425Z,65.12
2022-11-02T04:49:17.458Z,65.23
2022-11-02T04:52:10.681Z,65.12
2022-11-02T04:55:03.784Z,65.12
2022-11-02T04:57:53.383Z,65.17
2022-11-02T05:00:43.284Z,65.09
2022-11-02T05:03:32.118Z,65.06
2022-11-02T05:06:24.153Z,65.08
2022-11-02T05:09:14.375Z,64.99
2022-11-02T05:12:06.969Z,65.02
2022-11-02T05:15:02.653Z,65.09
2022-11-02T05:17:50.557Z,65.08
2022-11-02T05:20:38.801Z,65.09
2022-11-02T05:23:26.893Z,65.20
2022-11-02T05:26:14.953Z,65.15
2022-11-02T05:29:07.559Z,65.16
2022-11-02T05:31:58.048Z,65.14
2022-11-02T05:34:45.845Z,65.01
2022-11-02T05:37:34.242Z,65.20
2022-11-02T05:40:23.607Z,65.15
2022-11-02T05:43:12.107Z,65.26
2022-11-02T05:46:02.444Z,65.38
2022-11-02T05:48:51.586Z,65.31
2022-11-02T05:51:39.110Z,65.24
2022-11-02T05:54:27.022Z,65.26
2022-11-02T05:57:17.277Z,65.40
2022-11-02T06:00:06.788Z,65.38
2022-11-02T06:03:03.192Z,65.29
2022-11-02T06:05:58.114Z,65.28
2022-11-02T06:08:45.967Z,65.31
2022-11-02T06:11:33.440Z,65.49
2022-11-02T06:14:21.070Z,65.43
2022-11-02T06:17:08.800Z,65.58
2022-11-02T06:19:56.289Z,65.50
2022-11-02T06:22:45.837Z,65.50
2022-11-02T06:25:33.897Z,65.61
2022-11-02T06:28:21.539Z,65.40
2022-11-02T06:31:12.366Z,65.50
2022-11-02T06:34:00.226Z,65.44
2022-11-02T06:36:47.791Z,65.58
2022-11-02T06:42:34.161Z,65.42
2022-11-02T06:45:24.481Z,65.39
2022-11-02T06:48:14.537Z,65.15
2022-11-02T06:51:02.859Z,64.98
2022-11-02T06:53:53.593Z,64.68
2022-11-02T06:56:42.725Z,64.59
2022-11-02T06:59:31.256Z,64.66
2022-11-02T07:02:18.735Z,64.71
2022-11-02T07:05:07.066Z,64.38
2022-11-02T07:07:55.195Z,64.51
2022-11-02T07:10:45.448Z,64.27
2022-11-02T07:13:34.452Z,64.19
2022-11-02T07:16:22.000Z,64.20
2022-11-02T07:19:09.549Z,63.99
2022-11-02T07:21:57.166Z,64.01
2022-11-02T07:24:44.803Z,63.65
2022-11-02T07:27:32.725Z,63.80
2022-11-02T07:30:22.334Z,63.70
2022-11-02T07:33:10.286Z,63.37
2022-11-02T07:36:00.367Z,63.44
2022-11-02T07:38:48.253Z,63.21
2022-11-02T07:41:35.991Z,63.35
2022-11-02T07:44:23.449Z,63.03
2022-11-02T07:47:16.876Z,63.14
2022-11-02T07:50:04.912Z,62.89
2022-11-02T07:52:54.659Z,63.05
2022-11-02T07:55:42.961Z,62.82
2022-11-02T07:58:30.414Z,62.70
2022-11-02T08:01:23.755Z,62.74
2022-11-02T08:04:13.188Z,63.12
2022-11-02T08:07:00.866Z,63.27
2022-11-02T08:09:50.757Z,63.31
2022-11-02T08:12:38.236Z,63.41
2022-11-02T08:15:26.522Z,63.10
2022-11-02T08:18:16.821Z,62.91
2022-11-02T08:21:06.120Z,62.48
2022-11-02T08:23:58.525Z,62.36
2022-11-02T08:26:47.576Z,62.09
2022-11-02T08:29:37.218Z,61.81
2022-11-02T08:32:24.860Z,61.44
2022-11-02T08:35:12.559Z,61.04
2022-11-02T08:38:02.223Z,60.50
2022-11-02T08:40:50.720Z,59.83
2022-11-02T08:43:38.545Z,59.50
2022-11-02T08:46:26.114Z,59.04
2022-11-02T08:49:14.592Z,58.74
2022-11-02T08:52:02.270Z,57.73
2022-11-02T08:54:51.230Z,57.11
2022-11-02T08:57:47.190Z,56.21
2022-11-02T09:00:41.100Z,55.73
2022-11-02T09:03:28.925Z,55.61
2022-11-02T09:06:16.357Z,54.59
2022-11-02T09:09:06.102Z,54.02
2022-11-02T09:11:55.026Z,53.46
2022-11-02T09:14:42.507Z,52.69
2022-11-02T09:17:33.986Z,52.28
2022-11-02T09:20:23.587Z,51.42
2022-11-02T09:25:07.103Z,50.83
2022-11-02T09:27:58.636Z,50.20
2022-11-02T09:30:46.317Z,49.69
2022-11-02T09:33:34.477Z,49.34
2022-11-02T09:36:22.656Z,48.42
2022-11-02T09:39:10.991Z,48.44
2022-11-02T09:42:14.985Z,47.40
2022-11-02T09:45:09.812Z,47.49
2022-11-02T09:48:16.358Z,47.25
2022-11-02T09:51:10.452Z,47.01
2022-11-02T09:54:13.159Z,46.48
2022-11-02T09:57:10.515Z,45.85
2022-11-02T09:59:58.593Z,45.84
2022-11-02T10:03:01.676Z,45.46
2022-11-02T10:05:58.098Z,45.05
2022-11-02T10:08:57.526Z,44.46
2022-11-02T10:11:56.456Z,44.11
2022-11-02T10:14:56.887Z,44.33
2022-11-02T10:17:49.396Z,44.00
2022-11-02T10:20:46.105Z,43.45
2022-11-02T10:23:36.908Z,43.35
2022-11-02T10:26:28.463Z,42.57
2022-11-02T10:29:21.591Z,41.80
2022-11-02T10:32:16.591Z,41.74
2022-11-02T10:35:31.540Z,40.89
2022-11-02T10:38:41.630Z,39.06
2022-11-02T10:41:51.708Z,38.44
2022-11-02T10:45:05.307Z,38.71
2022-11-02T10:48:04.441Z,38.56
2022-11-02T10:51:02.039Z,38.50
2022-11-02T10:53:51.969Z,38.94
2022-11-02T10:56:40.793Z,39.31
2022-11-02T10:59:28.262Z,39.70
2022-11-02T11:02:17.059Z,39.52
2022-11-02T11:05:15.428Z,39.64
2022-11-02T11:08:03.637Z,39.82
2022-11-02T11:10:51.603Z,39.96
2022-11-02T11:16:50.771Z,40.33
2022-11-02T11:19:42.647Z,40.74
2022-11-02T11:22:36.564Z,40.88
2022-11-02T11:25:28.408Z,41.49
2022-11-02T11:28:26.469Z,41.39
2022-11-02T11:31:18.084Z,41.89
2022-11-02T11:34:07.022Z,41.69
2022-11-02T11:36:54.936Z,42.48
2022-11-02T11:39:51.103Z,42.57
2022-11-02T11:42:44.924Z,42.78
2022-11-02T11:45:34.215Z,42.73
2022-11-02T11:48:34.907Z,42.83
2022-11-02T11:51:39.361Z,42.98
2022-11-02T11:54:28.787Z,42.96
2022-11-02T11:57:29.697Z,43.53
2022-11-02T12:00:30.294Z,43.46
2022-11-02T12:03:17.691Z,43.63
2022-11-02T12:06:17.813Z,44.02
2022-11-02T12:09:13.946Z,44.03
2022-11-02T12:12:08.991Z,44.27
2022-11-02T12:15:12.556Z,44.36
2022-11-02T12:18:16.570Z,44.78
2022-11-02T12:21:24.997Z,45.01
2022-11-02T12:24:46.139Z,45.25
2022-11-02T12:27:47.714Z,45.10
2022-11-02T12:30:49.851Z,44.73
2022-11-02T12:33:58.636Z,44.90
2022-11-02T12:37:35.369Z,44.94
2022-11-02T12:40:27.461Z,44.88
2022-11-02T12:43:35.538Z,44.77
2022-11-02T12:46:41.257Z,44.75
2022-11-02T12:49:42.793Z,44.90
2022-11-02T12:52:46.267Z,44.75
2022-11-02T12:55:42.990Z,45.10
2022-11-02T12:58:34.810Z,44.84
2022-11-02T13:01:30.689Z,45.30
2022-11-02T13:04:26.173Z,45.07
2022-11-02T13:07:29.693Z,45.44
2022-11-02T13:10:21.751Z,45.66
2022-11-02T13:13:17.921Z,45.87
2022-11-02T13:16:08.959Z,45.93
2022-11-02T13:19:01.609Z,45.75
2022-11-02T13:21:55.381Z,46.10
2022-11-02T13:24:48.953Z,46.01
2022-11-02T13:27:47.452Z,45.83
2022-11-02T13:30:36.168Z,46.04
2022-11-02T13:33:28.416Z,46.12
2022-11-02T13:36:18.111Z,46.69
2022-11-02T13:39:11.940Z,46.65
2022-11-02T13:42:39.449Z,47.24
2022-11-02T13:46:08.448Z,47.37
2022-11-02T13:49:02.467Z,47.51
2022-11-02T13:51:57.772Z,47.69
2022-11-02T13:54:47.567Z,47.79
2022-11-02T13:57:39.956Z,48.32
2022-11-02T14:00:36.384Z,48.57
2022-11-02T14:03:28.228Z,48.29
2022-11-02T14:06:21.535Z,48.77
2022-11-02T14:09:18.993Z,48.51
2022-11-02T14:12:30.563Z,48.50
2022-11-02T14:15:53.965Z,48.61
2022-11-02T14:18:41.595Z,48.66
2022-11-02T14:21:44.240Z,48.88
2022-11-02T14:25:18.810Z,49.04
2022-11-02T14:28:34.594Z,48.71
2022-11-02T14:31:59.123Z,48.88
2022-11-02T14:35:13.600Z,48.68
2022-11-02T14:38:41.737Z,48.52
2022-11-02T14:42:01.232Z,48.77
2022-11-02T14:45:23.451Z,48.63
2022-11-02T14:48:17.425Z,48.94
2022-11-02T14:51:13.659Z,48.75
2022-11-02T14:54:08.208Z,48.93
2022-11-02T14:57:12.632Z,48.92
2022-11-02T15:00:03.983Z,48.73
2022-11-02T15:02:54.082Z,48.67
2022-11-02T15:05:44.056Z,48.98
2022-11-02T15:08:38.036Z,49.11
2022-11-02T15:11:46.088Z,49.12
2022-11-02T15:14:56.671Z,49.17
2022-11-02T15:18:33.845Z,49.37
2022-11-02T15:21:30.838Z,49.33
2022-11-02T15:24:27.676Z,49.63
2022-11-02T15:27:15.272Z,49.69
2022-11-02T15:30:07.301Z,49.85
2022-11-02T15:33:01.520Z,50.05
2022-11-02T15:35:53.225Z,50.14
2022-11-02T15:38:40.875Z,50.33
2022-11-02T15:41:39.868Z,50.36
2022-11-02T15:45:26.984Z,50.44
2022-11-02T15:48:37.082Z,50.64
2022-11-02T15:51:34.144Z,50.63
2022-11-02T15:54:54.668Z,50.71
2022-11-02T15:57:48.544Z,50.95
2022-11-02T16:00:37.132Z,51.13
2022-11-02T16:03:26.650Z,50.88
2022-11-02T16:06:15.159Z,51.05
2022-11-02T16:09:05.319Z,51.14
2022-11-02T16:12:04.417Z,51.48
2022-11-02T16:14:57.889Z,51.38
2022-11-02T16:17:49.317Z,51.38
2022-11-02T16:20:40.541Z,51.57
2022-11-02T16:23:31.549Z,51.52
2022-11-02T16:26:22.886Z,51.57
2022-11-02T16:29:11.280Z,51.68
2022-11-02T16:31:59.144Z,51.67
2022-11-02T16:34:47.269Z,51.83
2022-11-02T16:37:36.695Z,51.98
2022-11-02T16:40:27.457Z,52.14
2022-11-02T16:43:16.236Z,52.31
2022-11-02T16:46:07.157Z,52.41
2022-11-02T16:49:16.671Z,52.51
2022-11-02T16:52:20.643Z,52.17
2022-11-02T16:55:42.589Z,52.48
2022-11-02T16:58:30.611Z,52.48
2022-11-02T17:01:23.942Z,52.64
2022-11-02T17:04:22.849Z,52.77
2022-11-02T17:07:20.598Z,52.94
2022-11-02T17:10:10.576Z,52.96
2022-11-02T17:13:01.056Z,53.22
2022-11-02T17:15:51.434Z,53.25
2022-11-02T17:18:39.591Z,53.35
2022-11-02T17:21:30.641Z,53.62
2022-11-02T17:24:35.418Z,53.75
2022-11-02T17:27:28.681Z,53.67
2022-11-02T17:30:49.523Z,54.06
2022-11-02T17:33:37.261Z,53.97
2022-11-02T17:36:27.086Z,54.10
2022-11-02T17:39:16.605Z,54.27
2022-11-02T17:42:22.323Z,54.27
2022-11-02T17:45:28.654Z,54.26
2022-11-02T17:48:17.487Z,54.43
2022-11-02T17:51:05.955Z,54.55
2022-11-02T17:53:53.599Z,54.44
2022-11-02T17:56:41.470Z,54.54
2022-11-02T17:59:29.130Z,54.64
2022-11-02T18:02:18.081Z,54.96
2022-11-02T18:05:21.668Z,54.90
2022-11-02T18:08:10.466Z,54.79
2022-11-02T18:11:00.539Z,54.47
2022-11-02T18:13:48.208Z,54.90
2022-11-02T18:16:35.898Z,54.88
2022-11-02T18:19:23.675Z,54.97
2022-11-02T18:22:21.019Z,55.10
2022-11-02T18:25:11.564Z,55.18
2022-11-02T18:28:00.511Z,54.99
2022-11-02T18:30:48.703Z,54.94
2022-11-02T18:33:36.681Z,55.22
2022-11-02T18:36:27.886Z,55.22
2022-11-02T18:39:17.060Z,55.57
2022-11-02T18:42:06.261Z,55.47
2022-11-02T18:44:53.763Z,55.31
2022-11-02T18:47:42.090Z,55.01
2022-11-02T18:50:29.938Z,55.34
2022-11-02T18:53:17.596Z,55.41
2022-11-02T18:56:08.796Z,55.32
2022-11-02T18:58:57.147Z,55.53
2022-11-02T19:01:45.233Z,55.52
2022-11-02T19:04:33.158Z,55.64
2022-11-02T19:07:38.277Z,55.77
2022-11-02T19:10:25.830Z,55.78
2022-11-02T19:13:15.222Z,55.90
2022-11-02T19:16:02.890Z,55.90
2022-11-02T19:18:51.961Z,55.90
2022-11-02T19:21:39.845Z,56.15
2022-11-02T19:24:27.318Z,56.11
2022-11-02T19:27:18.179Z,56.24
2022-11-02T19:30:09.404Z,56.15
2022-11-02T19:32:58.431Z,56.34
2022-11-02T19:36:00.250Z,56.38
2022-11-02T19:38:50.765Z,56.34
2022-11-02T19:41:40.054Z,56.62
2022-11-02T19:44:27.897Z,56.36
2022-11-02T19:47:17.141Z,56.53
2022-11-02T19:50:07.768Z,56.38
2022-11-02T19:52:55.614Z,56.60
2022-11-02T19:55:52.760Z,56.47
2022-11-02T19:58:41.704Z,56.48
2022-11-02T20:01:31.940Z,56.31
2022-11-02T20:04:20.867Z,56.34
2022-11-02T20:07:08.381Z,56.42
2022-11-02T20:09:58.767Z,56.36
2022-11-02T20:12:47.267Z,56.16
2022-11-02T20:15:39.531Z,56.37
2022-11-02T20:18:28.219Z,56.48
2022-11-02T20:21:20.301Z,56.67
2022-11-02T20:24:09.098Z,56.76
2022-11-02T20:27:02.794Z,56.82
2022-11-02T20:29:51.199Z,56.95
2022-11-02T20:32:38.809Z,57.00
2022-11-02T20:35:26.655Z,57.01
2022-11-02T20:38:16.102Z,56.88
2022-11-02T20:41:11.914Z,56.97
2022-11-02T20:43:59.909Z,57.31
2022-11-02T20:46:52.720Z,57.04
2022-11-02T20:49:50.528Z,57.12
2022-11-02T20:52:39.212Z,57.12
2022-11-02T20:55:31.289Z,57.23
2022-11-02T20:58:20.355Z,57.18
2022-11-02T21:01:08.293Z,57.10
2022-11-02T21:03:55.595Z,57.09
2022-11-02T21:06:43.331Z,57.19
2022-11-02T21:09:31.317Z,57.22
2022-11-02T21:12:37.893Z,57.26
2022-11-02T21:15:25.590Z,57.19
2022-11-02T21:18:13.827Z,57.30
2022-11-02T21:21:09.394Z,57.34
2022-11-02T21:23:57.569Z,57.24
2022-11-02T21:26:45.279Z,57.32
2022-11-02T21:29:34.280Z,57.44
2022-11-02T21:32:21.669Z,57.39
2022-11-02T21:35:10.635Z,57.50
2022-11-02T21:38:02.517Z,57.54
2022-11-02T21:40:59.963Z,57.51
2022-11-02T21:43:47.641Z,57.51
2022-11-02T21:46:37.024Z,57.50
2022-11-02T21:49:24.765Z,57.43
2022-11-02T21:52:12.553Z,57.50
2022-11-02T21:55:00.278Z,57.54
2022-11-02T21:57:50.986Z,57.70
2022-11-02T22:00:56.325Z,57.53
2022-11-02T22:03:45.331Z,57.32
2022-11-02T22:06:33.454Z,57.45
2022-11-02T22:09:21.159Z,57.52
2022-11-02T22:12:31.859Z,57.55
2022-11-02T22:15:19.748Z,57.52
2022-11-02T22:18:07.664Z,57.70
2022-11-02T22:20:58.468Z,57.72
2022-11-02T22:23:46.617Z,57.68
2022-11-02T22:26:36.156Z,57.52
2022-11-02T22:29:23.700Z,57.69
2022-11-02T22:32:11.471Z,57.69
2022-11-02T22:34:59.265Z,57.62
2022-11-02T22:38:05.596Z,57.54
2022-11-02T22:40:59.711Z,57.49
2022-11-02T22:43:47.932Z,57.67
2022-11-02T22:46:37.887Z,57.90
2022-11-02T22:49:25.557Z,57.80
2022-11-02T22:52:13.210Z,57.58
2022-11-02T22:55:02.324Z,57.63
2022-11-02T22:57:49.702Z,57.51
2022-11-02T23:00:37.406Z,57.79
2022-11-02T23:03:25.712Z,57.68
2022-11-02T23:06:13.809Z,57.91
2022-11-02T23:09:03.690Z,57.75
2022-11-02T23:11:57.798Z,57.82
2022-11-02T23:14:45.145Z,57.94
2022-11-02T23:17:32.705Z,58.02
2022-11-02T23:20:20.125Z,57.90
2022-11-02T23:23:39.956Z,57.94
2022-11-02T23:26:27.306Z,57.79
2022-11-02T23:29:35.588Z,57.76
2022-11-02T23:32:29.151Z,57.76
2022-11-02T23:35:34.247Z,57.82
2022-11-02T23:38:23.340Z,57.64
2022-11-02T23:41:11.029Z,57.50
2022-11-02T23:44:12.793Z,57.48
2022-11-02T23:47:01.739Z,57.51
2022-11-02T23:49:49.084Z,57.49
2022-11-02T23:52:53.723Z,57.43
2022-11-02T23:55:59.053Z,57.51
2022-11-02T23:58:48.706Z,57.51
